Lulu Pass Weather Station

This weather station is located at 10020ft near Lulu Pass at the head of Fisher Creek. This data can be used with temperature and precipitation data from the Fisher Creek SNOTEL site. This data can be viewed directly on datagarrison.com

Elevation
10020ft
Jump to table bottom
Date Time Temperature
deg F
RH, % Wind Speed Wind Gust Wind Direction
12/10/22 03:00 2.1 88 8 18 SW - 218
12/10/22 02:00 2.5 88 11 27 SW - 205
12/10/22 01:00 2.7 88 17 39 S - 184
12/10/22 00:00 3.2 88 13 34 S - 197
12/09/22 23:00 3.4 88 11 28 SW - 208
12/09/22 22:00 4.4 88 9 24 SW - 209
12/09/22 21:00 5.0 89 11 25 SW - 209
12/09/22 20:00 5.6 89 10 18 SW - 205
12/09/22 19:00 6.2 89 8 21 SW - 212
12/09/22 18:00 6.2 89 9 19 SW - 216
12/09/22 17:00 7.9 90 10 22 SW - 247
12/09/22 16:00 9.2 90 10 21 W - 250
12/09/22 15:00 9.9 90 10 31 SW - 219
12/09/22 14:00 9.9 90 10 30 SW - 211
12/09/22 13:00 9.8 90 12 34 SW - 211
12/09/22 12:00 9.9 90 17 34 S - 199
12/09/22 11:00 9.7 90 21 39 S - 194
12/09/22 10:00 8.6 89 24 39 S - 195
12/09/22 09:00 7.9 89 22 33 S - 194
12/09/22 08:00 7.5 89 19 33 S - 195
12/09/22 07:00 7.2 89 12 30 SW - 206
12/09/22 06:00 6.4 89 15 34 SW - 205
12/09/22 05:00 6.3 89 19 40 S - 198
12/09/22 04:00 6.3 89 15 36 S - 197
12/09/22 03:00 5.4 88 11 33 S - 184
12/09/22 02:00 4.7 88 9 25 S - 187
12/09/22 01:00 4.2 88 7 21 S - 164
12/09/22 00:00 2.9 88 5 20 SE - 135
12/08/22 23:00 2.7 88 5 14 S - 170
12/08/22 22:00 3.0 88 11 21 S - 180
12/08/22 21:00 3.9 88 8 20 S - 192
12/08/22 20:00 3.9 88 5 14 SW - 229
12/08/22 19:00 4.2 88 12 21 S - 197
12/08/22 18:00 4.7 88 10 21 S - 195
12/08/22 17:00 4.6 88 13 23 S - 197
12/08/22 16:00 5.4 89 7 19 SW - 209
12/08/22 15:00 7.7 90 5 10 W - 263
12/08/22 14:00 9.1 90 7 14 W - 289
12/08/22 13:00 9.4 91 7 13 W - 289
12/08/22 12:00 10.9 91 5 13 W - 251
12/08/22 11:00 11.7 90 5 10 SW - 218
12/08/22 10:00 9.3 89 1 3 SW - 211
12/08/22 09:00 5.7 88 1 3 SW - 205
12/08/22 08:00 3.4 88 1 3 SW - 240
12/08/22 07:00 3.9 88 1 3 W - 274
12/08/22 06:00 3.8 88 1 2 NW - 299
12/08/22 05:00 3.1 88 1 2 SW - 223
12/08/22 04:00 3.1 88 1 3 W - 288
12/08/22 03:00 4.6 88 1 3 W - 267
12/08/22 02:00 4.2 88 1 2 NW - 314